Time;durP1;ratioP1;P1;durP2;ratioP2;P2;SDS_P1;SDS_P2;PMS_P1;PMS_P2;Temp;Humidity;BMP_temperature;BMP_pressure;BME280_temperature;BME280_humidity;BME280_pressure;Samples;Min_cycle;Max_cycle;Signal;HPM_P1;HPM_P2
2022/07/24 00:00:57;;;;;;;16.03;11.07;;;19.50;99.90;;;;;;5016530;28;20238;-68
2022/07/24 00:03:23;;;;;;;11.80;10.73;;;19.50;99.90;;;;;;5017253;28;20178;-66
2022/07/24 00:05:49;;;;;;;11.70;10.53;;;19.50;99.90;;;;;;5017021;28;20187;-67
2022/07/24 00:08:15;;;;;;;13.87;11.47;;;19.50;99.90;;;;;;5017485;28;20173;-69
2022/07/24 00:10:40;;;;;;;13.00;11.63;;;19.50;99.90;;;;;;5017214;28;20200;-69
2022/07/24 00:13:06;;;;;;;12.50;11.33;;;19.50;99.90;;;;;;5015980;28;20170;-69
2022/07/24 00:15:32;;;;;;;11.33;10.43;;;19.40;99.90;;;;;;5017331;28;20566;-69
2022/07/24 00:17:58;;;;;;;11.50;10.60;;;19.30;99.90;;;;;;5017292;28;20173;-70
2022/07/24 00:20:23;;;;;;;13.50;10.13;;;19.30;99.90;;;;;;5017121;28;20187;-69
2022/07/24 00:22:49;;;;;;;10.93;9.93;;;19.20;99.90;;;;;;5017189;28;20182;-69
2022/07/24 00:25:15;;;;;;;12.57;11.33;;;19.20;99.90;;;;;;5017206;28;20228;-67
2022/07/24 00:27:41;;;;;;;13.00;11.80;;;19.30;99.90;;;;;;5016948;28;20201;-68
2022/07/24 00:30:07;;;;;;;12.50;11.33;;;19.30;99.90;;;;;;5016531;28;20197;-68
2022/07/24 00:32:33;;;;;;;14.80;12.83;;;19.30;99.90;;;;;;5017186;28;20249;-67
2022/07/24 00:34:59;;;;;;;12.47;11.50;;;19.40;99.90;;;;;;5016880;28;20249;-68
2022/07/24 00:37:25;;;;;;;13.00;11.80;;;19.30;99.90;;;;;;5017033;28;20837;-67
2022/07/24 00:39:50;;;;;;;14.10;12.53;;;19.20;99.90;;;;;;5016622;28;20170;-67
2022/07/24 00:42:16;;;;;;;14.87;13.07;;;19.10;99.90;;;;;;5016734;28;20196;-68
2022/07/24 00:44:42;;;;;;;12.97;11.77;;;18.90;99.90;;;;;;5016662;28;20181;-68
2022/07/24 00:47:08;;;;;;;31.27;24.00;;;18.90;99.90;;;;;;5016124;28;20188;-67
2022/07/24 00:49:34;;;;;;;27.83;24.90;;;18.40;99.90;;;;;;5015672;28;20215;-68
2022/07/24 00:52:00;;;;;;;27.63;24.83;;;-40.00;99.90;;;;;;5016386;28;20215;-67
2022/07/24 00:54:26;;;;;;;28.83;26.13;;;-40.00;99.90;;;;;;5016673;28;20193;-68
2022/07/24 00:56:53;;;;;;;27.53;24.87;;;-40.00;99.90;;;;;;5016418;28;20161;-67
2022/07/24 00:59:20;;;;;;;28.20;25.00;;;-40.00;99.90;;;;;;5016291;28;20173;-68
2022/07/24 01:01:47;;;;;;;27.63;24.80;;;-40.00;99.90;;;;;;5016665;28;20169;-68
2022/07/24 01:04:13;;;;;;;27.80;25.23;;;-40.00;99.90;;;;;;5016422;28;20161;-67
2022/07/24 01:06:43;;;;;;;20.50;18.53;;;-40.00;99.90;;;;;;5016555;28;20170;-66
2022/07/24 01:09:09;;;;;;;18.33;16.50;;;-40.00;99.90;;;;;;5016152;28;20217;-69
2022/07/24 01:11:36;;;;;;;20.93;15.93;;;-40.00;99.90;;;;;;5016268;28;20165;-67
2022/07/24 01:14:02;;;;;;;21.63;19.30;;;-40.00;99.90;;;;;;5016095;28;20656;-68
2022/07/24 01:16:28;;;;;;;21.33;19.03;;;-40.00;99.90;;;;;;5015836;28;20280;-68
2022/07/24 01:18:54;;;;;;;28.13;25.27;;;-40.00;99.90;;;;;;5016126;28;20477;-66
2022/07/24 01:21:19;;;;;;;28.87;25.87;;;-40.00;99.90;;;;;;5016234;28;20166;-67
2022/07/24 01:23:45;;;;;;;29.80;26.83;;;-40.00;99.90;;;;;;5016111;28;20219;-67
2022/07/24 01:26:11;;;;;;;26.80;24.13;;;-40.00;99.90;;;;;;5015711;28;20170;-67
2022/07/24 01:28:37;;;;;;;30.50;27.33;;;-38.90;99.90;;;;;;5016256;28;20158;-68
2022/07/24 01:31:03;;;;;;;28.63;25.77;;;-40.00;99.90;;;;;;5016016;28;20235;-67
2022/07/24 01:33:29;;;;;;;30.10;27.03;;;-40.00;99.90;;;;;;5016136;28;20165;-68
2022/07/24 01:35:55;;;;;;;30.17;25.20;;;-40.00;99.90;;;;;;5015679;28;20325;-70
2022/07/24 01:38:20;;;;;;;27.23;24.83;;;-40.00;99.90;;;;;;5015217;28;20248;-67
2022/07/24 01:40:46;;;;;;;28.77;25.80;;;-40.00;99.90;;;;;;5006531;28;20186;-68
2022/07/24 01:43:12;;;;;;;23.80;21.43;;;-40.00;99.90;;;;;;4996462;28;20161;-69
2022/07/24 01:45:38;;;;;;;21.13;19.20;;;-40.00;99.90;;;;;;4996372;28;20178;-68
2022/07/24 01:48:04;;;;;;;20.50;18.30;;;-40.00;99.90;;;;;;5009325;28;20238;-69
2022/07/24 01:50:31;;;;;;;21.33;19.00;;;-40.00;99.90;;;;;;5015800;28;20231;-69
2022/07/24 01:52:57;;;;;;;21.60;19.60;;;-40.00;99.90;;;;;;5015196;28;20577;-66
2022/07/24 01:55:23;;;;;;;21.37;18.93;;;-40.00;99.90;;;;;;5015276;28;20260;-70
2022/07/24 01:57:49;;;;;;;23.43;20.73;;;-40.00;99.90;;;;;;5016523;28;20169;-66
2022/07/24 02:00:16;;;;;;;20.73;18.93;;;-40.00;99.90;;;;;;5019833;28;20395;-66
2022/07/24 02:02:44;;;;;;;23.20;20.73;;;-40.00;99.90;;;;;;5018816;28;20188;-68
2022/07/24 02:05:12;;;;;;;21.70;19.63;;;-40.00;99.90;;;;;;5019632;28;20601;-67
2022/07/24 02:07:39;;;;;;;24.17;20.70;;;-40.00;99.90;;;;;;5018631;28;20576;-67
2022/07/24 02:10:05;;;;;;;22.80;20.70;;;-40.00;99.90;;;;;;5018941;28;20212;-69
2022/07/24 02:12:31;;;;;;;23.90;20.27;;;-36.10;99.90;;;;;;5019664;28;20170;-68
2022/07/24 02:14:57;;;;;;;23.87;21.57;;;-34.60;99.90;;;;;;5019660;28;20296;-67
2022/07/24 02:17:22;;;;;;;21.73;19.60;;;-35.10;99.90;;;;;;5019471;28;20178;-67
2022/07/24 02:19:48;;;;;;;24.23;21.77;;;-31.30;99.90;;;;;;5019342;28;20297;-67
2022/07/24 02:22:14;;;;;;;26.03;21.10;;;-33.40;99.90;;;;;;5019379;28;20642;-67
2022/07/24 02:24:40;;;;;;;23.07;20.73;;;-30.20;99.90;;;;;;5019301;28;20256;-67
2022/07/24 02:27:05;;;;;;;24.03;21.67;;;-36.90;99.90;;;;;;5019394;28;20204;-67
2022/07/24 02:29:31;;;;;;;23.90;21.60;;;-32.70;99.90;;;;;;5019166;28;20197;-69
2022/07/24 02:31:57;;;;;;;25.17;22.47;;;-38.30;99.90;;;;;;5019166;28;20169;-68
2022/07/24 02:34:23;;;;;;;22.93;20.87;;;-38.40;99.90;;;;;;5019468;28;20278;-67
2022/07/24 02:36:49;;;;;;;25.00;22.50;;;-39.60;99.90;;;;;;5019304;28;20170;-66
2022/07/24 02:39:15;;;;;;;21.40;19.67;;;-34.30;99.90;;;;;;5018808;28;20185;-66
2022/07/24 02:41:40;;;;;;;25.30;22.60;;;-28.50;99.90;;;;;;5019248;28;20468;-67
2022/07/24 02:44:06;;;;;;;24.40;21.87;;;-30.30;99.90;;;;;;5017930;28;20186;-69
2022/07/24 02:46:32;;;;;;;22.40;20.00;;;-29.90;99.90;;;;;;5018810;28;20180;-68
2022/07/24 02:48:58;;;;;;;30.70;23.13;;;-28.60;99.90;;;;;;5018041;28;20173;-67
2022/07/24 02:51:23;;;;;;;22.87;20.50;;;-31.90;99.90;;;;;;5017117;28;20252;-68
2022/07/24 02:53:49;;;;;;;23.70;19.47;;;-34.20;99.90;;;;;;5012361;28;20162;-67
2022/07/24 02:56:15;;;;;;;22.90;20.73;;;-33.00;99.90;;;;;;4999210;28;20565;-67
2022/07/24 02:58:41;;;;;;;25.03;22.37;;;-26.80;99.90;;;;;;5011894;28;20223;-67
2022/07/24 03:01:06;;;;;;;23.03;20.93;;;-33.00;99.90;;;;;;5017587;28;20177;-66
2022/07/24 03:03:32;;;;;;;23.47;20.67;;;-32.90;99.90;;;;;;5018918;28;20572;-67
2022/07/24 03:05:58;;;;;;;22.27;19.93;;;-28.30;99.90;;;;;;5009469;28;20265;-66
2022/07/24 03:08:23;;;;;;;22.23;20.13;;;-25.90;99.90;;;;;;4998749;28;20172;-68
2022/07/24 03:10:49;;;;;;;22.00;19.77;;;-27.00;99.90;;;;;;5010898;28;20506;-68
2022/07/24 03:13:15;;;;;;;27.87;22.17;;;-26.80;99.90;;;;;;5018802;28;20166;-67
2022/07/24 03:15:41;;;;;;;22.70;20.23;;;-26.70;99.90;;;;;;5018836;28;20703;-68
2022/07/24 03:18:07;;;;;;;27.90;21.07;;;-25.40;99.90;;;;;;5018868;28;20161;-67
2022/07/24 03:20:34;;;;;;;20.73;18.77;;;-23.20;99.90;;;;;;5019173;28;20553;-67
2022/07/24 03:22:59;;;;;;;21.07;19.07;;;-23.40;99.90;;;;;;5021176;28;20576;-67
2022/07/24 03:25:25;;;;;;;18.67;17.03;;;-24.60;99.90;;;;;;5019473;28;20252;-70
2022/07/24 03:27:51;;;;;;;20.97;16.90;;;-31.10;99.90;;;;;;5019422;28;20170;-69
2022/07/24 03:30:18;;;;;;;17.67;16.03;;;-28.70;99.90;;;;;;5019000;28;20193;-70
2022/07/24 03:32:45;;;;;;;20.67;18.43;;;-27.50;99.90;;;;;;5016634;28;20181;-70
2022/07/24 03:35:10;;;;;;;19.70;17.63;;;-31.70;99.90;;;;;;5019771;28;20165;-68
2022/07/24 03:37:36;;;;;;;19.90;17.83;;;-29.30;99.90;;;;;;5020464;28;20158;-68
2022/07/24 03:40:03;;;;;;;19.27;17.47;;;-29.60;99.90;;;;;;5018533;28;20177;-69
2022/07/24 03:42:29;;;;;;;18.43;16.37;;;-29.40;99.90;;;;;;5018107;28;20564;-70
2022/07/24 03:44:57;;;;;;;18.20;16.47;;;-30.90;99.90;;;;;;5017913;28;20201;-65
2022/07/24 03:47:23;;;;;;;18.60;16.73;;;-29.50;99.90;;;;;;5005044;28;20568;-68
2022/07/24 03:49:48;;;;;;;20.87;17.23;;;-28.30;99.90;;;;;;4998348;28;20194;-68
2022/07/24 03:52:14;;;;;;;21.47;17.53;;;-29.20;99.90;;;;;;4998032;28;20170;-69
2022/07/24 03:54:40;;;;;;;17.43;15.90;;;-31.40;99.90;;;;;;4998367;28;20245;-68
2022/07/24 03:57:06;;;;;;;19.27;17.30;;;-27.20;99.90;;;;;;4998277;28;20154;-67
2022/07/24 03:59:32;;;;;;;17.87;15.93;;;-24.10;99.90;;;;;;4998054;28;20170;-66
2022/07/24 04:01:58;;;;;;;16.23;14.57;;;-21.20;99.90;;;;;;4998046;28;20483;-68
2022/07/24 04:04:24;;;;;;;15.63;14.33;;;-24.90;99.90;;;;;;4997931;28;20175;-67
2022/07/24 04:06:50;;;;;;;17.10;15.40;;;-19.30;99.90;;;;;;4997723;28;20509;-68
2022/07/24 04:09:15;;;;;;;19.93;15.23;;;-26.30;99.90;;;;;;4997767;28;20190;-67
2022/07/24 04:11:44;;;;;;;22.20;16.77;;;-26.00;99.90;;;;;;4997970;28;20171;-67
2022/07/24 04:14:10;;;;;;;18.03;15.00;;;-20.80;99.90;;;;;;4997462;28;20260;-68
2022/07/24 04:16:36;;;;;;;16.70;15.00;;;-16.90;99.90;;;;;;4997732;28;20181;-68
2022/07/24 04:19:03;;;;;;;17.87;16.00;;;-20.80;99.90;;;;;;4997654;28;20601;-68
2022/07/24 04:21:29;;;;;;;19.67;14.90;;;-24.90;99.90;;;;;;4996480;28;20169;-70
2022/07/24 04:23:55;;;;;;;16.53;15.17;;;-21.80;99.90;;;;;;5010465;28;20256;-68
2022/07/24 04:26:21;;;;;;;18.00;14.93;;;-19.60;99.90;;;;;;5017080;28;20245;-69
2022/07/24 04:28:46;;;;;;;18.60;16.20;;;-19.70;99.90;;;;;;5017180;28;20180;-70
2022/07/24 04:31:12;;;;;;;17.10;14.53;;;-20.00;99.90;;;;;;5017132;28;20204;-71
2022/07/24 04:33:38;;;;;;;17.57;15.73;;;-22.90;99.90;;;;;;5017000;28;20256;-70
2022/07/24 04:36:05;;;;;;;16.47;14.77;;;-23.50;99.90;;;;;;5016868;28;20180;-68
2022/07/24 04:38:34;;;;;;;15.63;14.07;;;-22.80;99.90;;;;;;5016941;28;20171;-67
2022/07/24 04:41:00;;;;;;;13.77;12.40;;;-25.70;99.90;;;;;;5016984;28;20519;-70
2022/07/24 04:43:26;;;;;;;15.50;14.03;;;-24.90;99.90;;;;;;5016723;28;20197;-70
2022/07/24 04:45:52;;;;;;;15.30;14.03;;;-23.70;99.90;;;;;;5016975;28;20211;-69
2022/07/24 04:48:18;;;;;;;16.30;13.50;;;-23.90;99.90;;;;;;5016874;28;20170;-69
2022/07/24 04:50:43;;;;;;;14.50;13.10;;;-21.50;99.90;;;;;;5016585;28;20267;-69
2022/07/24 04:53:09;;;;;;;14.87;13.27;;;-20.20;99.90;;;;;;5016870;28;20169;-69
2022/07/24 04:55:35;;;;;;;14.40;13.00;;;-23.00;99.90;;;;;;5016636;28;20170;-70
2022/07/24 04:58:00;;;;;;;15.87;13.30;;;-19.10;99.90;;;;;;5016756;28;20239;-70
2022/07/24 05:00:26;;;;;;;13.07;11.90;;;-19.20;99.90;;;;;;5016528;28;20174;-70
2022/07/24 05:02:52;;;;;;;16.70;13.90;;;-16.90;99.90;;;;;;5016565;28;20161;-68
2022/07/24 05:05:17;;;;;;;13.37;12.13;;;-18.10;99.90;;;;;;5016177;28;20165;-69
2022/07/24 05:07:43;;;;;;;14.07;12.70;;;-19.80;99.90;;;;;;5016515;28;20197;-68
2022/07/24 05:10:09;;;;;;;16.80;13.80;;;-19.30;99.90;;;;;;5015916;28;20247;-69
2022/07/24 05:12:35;;;;;;;16.23;11.47;;;-20.90;99.90;;;;;;5016341;28;20197;-68
2022/07/24 05:15:01;;;;;;;12.20;11.00;;;-28.50;99.90;;;;;;5016016;28;20231;-69
2022/07/24 05:17:26;;;;;;;12.30;11.17;;;-25.50;99.90;;;;;;5016073;28;20188;-70
2022/07/24 05:19:52;;;;;;;14.90;12.10;;;-24.70;99.90;;;;;;5016274;28;20524;-68
2022/07/24 05:22:18;;;;;;;14.07;11.07;;;-25.60;99.90;;;;;;5016403;28;20181;-69
2022/07/24 05:24:44;;;;;;;12.07;10.93;;;-19.40;99.90;;;;;;5016070;28;20177;-70
2022/07/24 05:27:09;;;;;;;11.73;10.53;;;-24.90;99.90;;;;;;5016142;28;20176;-70
2022/07/24 05:29:35;;;;;;;12.77;11.00;;;-21.90;99.90;;;;;;5016136;28;20201;-70
2022/07/24 05:32:01;;;;;;;11.43;10.43;;;-21.60;99.90;;;;;;5015895;28;20568;-69
2022/07/24 05:34:26;;;;;;;12.07;10.67;;;-24.30;99.90;;;;;;5015651;28;20173;-70
2022/07/24 05:36:52;;;;;;;14.43;10.93;;;-25.20;99.90;;;;;;5015377;28;20176;-69
2022/07/24 05:39:18;;;;;;;12.13;9.03;;;-24.00;99.90;;;;;;5015937;28;20473;-68
2022/07/24 05:41:44;;;;;;;12.03;10.87;;;-27.40;99.90;;;;;;5015132;28;20205;-70
2022/07/24 05:44:09;;;;;;;9.33;8.43;;;-28.80;99.90;;;;;;5015841;28;20249;-68
2022/07/24 05:46:35;;;;;;;11.90;10.70;;;-30.50;99.90;;;;;;5013851;28;20173;-67
2022/07/24 05:49:01;;;;;;;8.93;8.03;;;-25.30;99.90;;;;;;5015827;28;20764;-67
2022/07/24 05:51:27;;;;;;;12.53;11.33;;;-25.80;99.90;;;;;;5015834;28;20173;-67
2022/07/24 05:53:52;;;;;;;11.17;9.47;;;-28.00;99.90;;;;;;5015839;28;20219;-68
2022/07/24 05:56:18;;;;;;;10.83;8.73;;;-31.30;99.90;;;;;;5015886;28;20249;-67
2022/07/24 05:58:44;;;;;;;8.53;7.83;;;-28.90;99.90;;;;;;5015950;28;20169;-69
2022/07/24 06:01:10;;;;;;;7.70;7.10;;;-29.40;99.90;;;;;;5015501;28;20173;-69
2022/07/24 06:03:36;;;;;;;7.57;6.83;;;-28.60;99.90;;;;;;5015812;28;20175;-69
2022/07/24 06:06:05;;;;;;;8.27;7.40;;;-30.90;99.90;;;;;;5014493;28;20178;-67
2022/07/24 06:08:31;;;;;;;8.63;6.90;;;-27.20;99.90;;;;;;5015273;28;20179;-66
2022/07/24 06:10:57;;;;;;;8.43;7.60;;;-33.30;99.90;;;;;;5014955;28;20206;-66
2022/07/24 06:13:22;;;;;;;14.03;6.80;;;-37.70;99.90;;;;;;5015601;28;20180;-67
2022/07/24 06:15:48;;;;;;;14.97;8.60;;;-30.40;99.90;;;;;;5015105;28;20208;-69
2022/07/24 06:18:14;;;;;;;7.50;6.80;;;-32.70;99.90;;;;;;5015684;28;20181;-67
2022/07/24 06:20:40;;;;;;;8.50;7.70;;;-39.60;99.90;;;;;;5015616;28;20177;-67
2022/07/24 06:23:06;;;;;;;8.67;7.77;;;-37.70;99.90;;;;;;5015536;28;20213;-67
2022/07/24 06:25:32;;;;;;;13.23;8.47;;;-40.00;99.90;;;;;;5014581;28;20530;-68
2022/07/24 06:27:58;;;;;;;11.13;7.57;;;-40.00;99.90;;;;;;5011594;28;20226;-71
2022/07/24 06:30:28;;;;;;;9.00;8.07;;;-40.00;99.90;;;;;;5008841;28;20202;-65
2022/07/24 06:32:56;;;;;;;11.07;8.63;;;-40.00;99.90;;;;;;5004275;28;20162;-66
2022/07/24 06:35:22;;;;;;;9.67;8.63;;;-40.00;99.90;;;;;;5012506;28;20177;-65
2022/07/24 06:37:48;;;;;;;12.37;8.87;;;-40.00;99.90;;;;;;4996725;28;20208;-67
2022/07/24 06:40:16;;;;;;;8.77;7.97;;;-40.00;99.90;;;;;;4995219;28;20186;-67
2022/07/24 06:42:41;;;;;;;12.93;8.33;;;-40.00;99.90;;;;;;4994689;28;20229;-67
2022/07/24 06:45:09;;;;;;;9.07;8.20;;;-40.00;99.50;;;;;;4995430;28;20586;-67
2022/07/24 06:47:35;;;;;;;11.00;9.00;;;-40.00;99.00;;;;;;5016562;28;20177;-67
2022/07/24 06:50:01;;;;;;;12.80;10.37;;;-40.00;97.90;;;;;;5018362;28;20484;-69
2022/07/24 06:52:26;;;;;;;17.50;12.97;;;-40.00;97.50;;;;;;5007744;28;20570;-67
2022/07/24 06:54:53;;;;;;;15.20;10.77;;;-40.00;96.70;;;;;;4997692;28;20213;-66
2022/07/24 06:57:19;;;;;;;11.63;8.97;;;-40.00;95.40;;;;;;4999425;28;20558;-68
2022/07/24 06:59:45;;;;;;;10.87;8.67;;;-40.00;95.10;;;;;;4998955;28;20212;-66
2022/07/24 07:02:11;;;;;;;11.53;8.93;;;-40.00;94.50;;;;;;4999046;28;20224;-66
2022/07/24 07:04:37;;;;;;;9.83;8.53;;;-40.00;94.10;;;;;;4999004;28;20174;-67
2022/07/24 07:07:04;;;;;;;12.60;9.07;;;-40.00;95.00;;;;;;4999092;28;20265;-67
2022/07/24 07:09:29;;;;;;;9.90;8.60;;;-40.00;95.00;;;;;;4999228;28;20194;-68
2022/07/24 07:11:55;;;;;;;8.47;7.63;;;-40.00;94.70;;;;;;4998866;28;20639;-68
2022/07/24 07:14:21;;;;;;;11.40;9.50;;;-40.00;94.20;;;;;;4998659;28;20182;-68
2022/07/24 07:16:48;;;;;;;11.67;8.07;;;-40.00;94.70;;;;;;4998767;28;20170;-67
2022/07/24 07:19:14;;;;;;;10.30;7.00;;;-40.00;94.90;;;;;;4998853;28;20174;-67
2022/07/24 07:21:40;;;;;;;8.67;6.80;;;-40.00;93.60;;;;;;4998816;28;20162;-66
2022/07/24 07:24:06;;;;;;;8.10;5.77;;;-40.00;92.80;;;;;;5015917;28;20608;-66
2022/07/24 07:26:33;;;;;;;6.10;5.40;;;-40.00;91.60;;;;;;5005700;28;20455;-64
2022/07/24 07:28:59;;;;;;;6.17;5.57;;;-40.00;91.90;;;;;;5017206;28;20535;-67
2022/07/24 07:31:26;;;;;;;5.30;4.80;;;-40.00;91.50;;;;;;5009122;28;20174;-67
2022/07/24 07:33:52;;;;;;;4.83;4.43;;;-40.00;91.30;;;;;;4998467;28;20170;-68
2022/07/24 07:36:19;;;;;;;6.23;4.97;;;-40.00;91.50;;;;;;4998158;28;20166;-65
2022/07/24 07:38:49;;;;;;;4.90;4.40;;;-40.00;90.80;;;;;;4998220;28;20174;-64
2022/07/24 07:41:15;;;;;;;3.97;3.67;;;-40.00;90.50;;;;;;4998470;28;20198;-66
2022/07/24 07:43:41;;;;;;;4.43;3.27;;;-40.00;88.40;;;;;;5007391;28;20178;-67
2022/07/24 07:46:07;;;;;;;3.97;2.93;;;-40.00;88.50;;;;;;5018365;28;20222;-68
2022/07/24 07:48:33;;;;;;;3.27;2.57;;;-40.00;86.70;;;;;;5018505;28;20484;-65
2022/07/24 07:50:59;;;;;;;4.00;2.50;;;-40.00;86.70;;;;;;5018423;28;20240;-67
2022/07/24 07:53:25;;;;;;;4.77;3.67;;;-40.00;84.40;;;;;;5017537;28;20201;-67
2022/07/24 07:55:52;;;;;;;2.50;2.30;;;-40.00;84.90;;;;;;5025254;28;20237;-66
2022/07/24 07:58:19;;;;;;;3.60;3.30;;;-40.00;84.80;;;;;;5026156;28;20172;-68
2022/07/24 08:00:45;;;;;;;5.77;3.37;;;-40.00;83.00;;;;;;5026941;28;20174;-66
2022/07/24 08:03:11;;;;;;;2.50;2.30;;;-40.00;83.40;;;;;;5021221;28;20561;-66
2022/07/24 08:05:37;;;;;;;3.27;2.70;;;-40.00;83.80;;;;;;5017623;28;20181;-66
2022/07/24 08:08:03;;;;;;;5.03;3.40;;;-40.00;85.00;;;;;;5013118;28;20181;-65
2022/07/24 08:10:29;;;;;;;2.77;2.13;;;-40.00;82.90;;;;;;5004921;28;20206;-67
2022/07/24 08:12:54;;;;;;;2.83;2.63;;;-40.00;83.10;;;;;;4996606;28;20175;-68
2022/07/24 08:15:20;;;;;;;1.77;1.70;;;-40.00;83.70;;;;;;5016945;28;20288;-66
2022/07/24 08:17:52;;;;;;;2.33;2.17;;;-40.00;81.70;;;;;;5016976;28;20176;-65
2022/07/24 08:20:18;;;;;;;2.50;2.27;;;-40.00;80.00;;;;;;5017613;28;20177;-70
2022/07/24 08:22:43;;;;;;;3.33;1.80;;;-40.00;80.30;;;;;;5010954;28;20235;-71
2022/07/24 08:25:09;;;;;;;3.90;2.93;;;-40.00;78.90;;;;;;4997500;28;20179;-70
2022/07/24 08:27:36;;;;;;;3.53;2.20;;;-40.00;77.80;;;;;;4997460;28;20177;-68
2022/07/24 08:30:03;;;;;;;2.33;2.13;;;-40.00;76.20;;;;;;4997486;28;20261;-68
2022/07/24 08:32:29;;;;;;;2.40;2.30;;;-40.00;76.90;;;;;;4998076;28;20167;-68
2022/07/24 08:34:55;;;;;;;3.70;1.83;;;-40.00;77.00;;;;;;4996310;28;20592;-66
2022/07/24 08:37:20;;;;;;;2.50;2.30;;;-40.00;77.20;;;;;;4997595;28;20240;-68
2022/07/24 08:39:47;;;;;;;2.53;1.83;;;-40.00;78.60;;;;;;4997418;28;20244;-67
2022/07/24 08:42:13;;;;;;;4.07;1.87;;;-40.00;79.50;;;;;;4997171;28;20165;-68
2022/07/24 08:44:39;;;;;;;2.80;1.87;;;-40.00;79.30;;;;;;4997408;28;20212;-67
2022/07/24 08:47:08;;;;;;;3.10;2.80;;;-40.00;77.90;;;;;;4997589;28;20173;-67
2022/07/24 08:49:36;;;;;;;3.17;2.63;;;-40.00;78.50;;;;;;4997296;28;20185;-67
2022/07/24 08:52:08;;;;;;;4.17;3.23;;;-40.00;76.90;;;;;;4997332;28;20197;-66
2022/07/24 08:54:35;;;;;;;2.23;2.10;;;-40.00;76.10;;;;;;4996088;28;20189;-68
2022/07/24 08:57:01;;;;;;;1.57;1.47;;;-40.00;76.00;;;;;;4996792;28;20501;-68
2022/07/24 08:59:27;;;;;;;1.60;1.50;;;-40.00;76.60;;;;;;4996990;28;20167;-68
2022/07/24 09:01:53;;;;;;;3.00;1.57;;;-40.00;75.10;;;;;;4996618;28;20166;-69
2022/07/24 09:04:38;;;;;;;1.80;1.73;;;-40.00;74.30;;;;;;5008781;28;20602;-69
2022/07/24 09:07:08;;;;;;;1.87;1.77;;;-40.00;72.90;;;;;;4996608;28;20177;-65
2022/07/24 09:09:35;;;;;;;1.63;1.53;;;-40.00;71.10;;;;;;5007713;28;20244;-68
2022/07/24 09:12:14;;;;;;;3.47;2.10;;;-40.00;70.40;;;;;;5016467;28;20172;-70
2022/07/24 09:14:46;;;;;;;2.50;2.30;;;-40.00;71.10;;;;;;5016008;28;20280;-69
2022/07/24 09:17:18;;;;;;;2.20;1.87;;;-40.00;71.30;;;;;;5016319;28;20168;-69
2022/07/24 09:19:51;;;;;;;2.27;1.77;;;-40.00;69.50;;;;;;5016121;28;20261;-68
2022/07/24 09:22:33;;;;;;;1.50;1.40;;;-40.00;70.20;;;;;;5000287;28;20613;-67
2022/07/24 09:25:32;;;;;;;3.73;2.27;;;-40.00;68.90;;;;;;4996297;28;20217;-66
2022/07/24 09:28:01;;;;;;;2.40;1.90;;;-40.00;68.90;;;;;;4995238;28;20210;-69
2022/07/24 09:30:36;;;;;;;1.77;1.67;;;-40.00;69.90;;;;;;4996529;28;20232;-68
2022/07/24 09:33:13;;;;;;;1.70;1.60;;;-40.00;68.80;;;;;;4996550;28;20166;-69
2022/07/24 09:35:42;;;;;;;2.07;1.97;;;-40.00;70.20;;;;;;4996611;28;20540;-68
2022/07/24 09:38:13;;;;;;;1.90;1.80;;;-40.00;68.60;;;;;;4996207;28;20229;-68
2022/07/24 09:40:41;;;;;;;1.93;1.83;;;-40.00;66.70;;;;;;4996425;28;20506;-67
2022/07/24 09:43:19;;;;;;;2.07;1.87;;;-40.00;66.90;;;;;;4996809;28;20515;-67
2022/07/24 09:46:04;;;;;;;3.13;1.67;;;-40.00;65.10;;;;;;4996344;28;20245;-69
2022/07/24 09:48:37;;;;;;;1.80;1.70;;;-40.00;65.40;;;;;;4996696;28;20257;-68
2022/07/24 09:51:10;;;;;;;2.67;1.53;;;-40.00;63.80;;;;;;4996312;28;20209;-67
2022/07/24 09:53:36;;;;;;;1.50;1.40;;;-40.00;66.50;;;;;;4995942;28;20684;-69
2022/07/24 09:56:11;;;;;;;1.70;1.60;;;-40.00;63.00;;;;;;4995016;28;20173;-67
2022/07/24 09:58:40;;;;;;;2.07;1.30;;;-40.00;64.60;;;;;;5009676;28;20161;-65
2022/07/24 10:01:08;;;;;;;4.70;2.00;;;-40.00;64.70;;;;;;5012354;28;20221;-66
2022/07/24 10:03:40;;;;;;;1.67;1.57;;;-40.00;63.30;;;;;;5007918;28;20239;-70
2022/07/24 10:06:11;;;;;;;2.63;1.53;;;-40.00;63.70;;;;;;5014343;28;20201;-67
2022/07/24 10:08:40;;;;;;;1.87;1.50;;;-40.00;63.20;;;;;;5015579;28;20596;-67
2022/07/24 10:11:06;;;;;;;3.37;2.03;;;-40.00;64.70;;;;;;5015458;28;20205;-68
2022/07/24 10:13:33;;;;;;;1.20;1.20;;;-40.00;63.90;;;;;;5015404;28;20476;-68
2022/07/24 10:16:14;;;;;;;1.80;1.70;;;-40.00;63.00;;;;;;5014349;28;20189;-69
2022/07/24 10:18:42;;;;;;;2.20;1.87;;;-40.00;63.30;;;;;;5016205;28;20165;-67
2022/07/24 10:21:10;;;;;;;2.20;1.90;;;-40.00;62.80;;;;;;5020065;28;20170;-69
2022/07/24 10:24:05;;;;;;;3.77;3.40;;;-40.00;62.20;;;;;;5021130;28;20174;-68
2022/07/24 10:26:36;;;;;;;2.43;2.00;;;-40.00;62.10;;;;;;5019561;28;20162;-67
2022/07/24 10:29:10;;;;;;;3.67;3.47;;;-40.00;61.90;;;;;;5019471;28;20168;-67
2022/07/24 10:31:48;;;;;;;2.00;1.90;;;-40.00;62.20;;;;;;5018659;28;20264;-65
2022/07/24 10:34:38;;;;;;;2.70;2.50;;;-40.00;64.60;;;;;;5019348;28;20260;-67
2022/07/24 10:37:04;;;;;;;2.20;2.10;;;-40.00;61.10;;;;;;5017539;28;20161;-66
2022/07/24 10:39:47;;;;;;;2.30;2.20;;;-40.00;61.20;;;;;;5019264;28;20170;-70
2022/07/24 10:42:13;;;;;;;1.93;1.67;;;-40.00;61.20;;;;;;5019190;28;20591;-69
2022/07/24 10:44:39;;;;;;;2.70;2.30;;;-40.00;61.20;;;;;;5018978;28;20201;-68
2022/07/24 10:47:08;;;;;;;4.03;2.30;;;-40.00;59.80;;;;;;5017942;28;20174;-67
2022/07/24 10:49:36;;;;;;;2.77;2.60;;;-40.00;59.30;;;;;;5018950;28;20384;-68
2022/07/24 10:52:02;;;;;;;2.00;1.60;;;-40.00;59.20;;;;;;5018584;28;20158;-67
2022/07/24 10:54:29;;;;;;;2.03;1.93;;;-40.00;58.40;;;;;;5001571;28;20181;-68
2022/07/24 10:56:55;;;;;;;2.23;1.70;;;-40.00;59.10;;;;;;5018640;28;20161;-73
2022/07/24 10:59:33;;;;;;;2.37;1.50;;;-40.00;59.50;;;;;;5016040;28;20244;-73
2022/07/24 11:02:27;;;;;;;4.53;2.20;;;-40.00;56.90;;;;;;4998956;28;20313;-71
2022/07/24 11:05:23;;;;;;;1.67;1.30;;;-40.00;58.30;;;;;;4998149;28;20166;-72
2022/07/24 11:08:18;;;;;;;2.43;1.37;;;-40.00;58.20;;;;;;4994618;28;20600;-73
2022/07/24 11:10:49;;;;;;;2.53;2.00;;;28.40;95.50;;;;;;4998889;28;20256;-74
2022/07/24 11:13:33;;;;;;;1.70;1.60;;;28.40;94.00;;;;;;5006514;28;20483;-71
2022/07/24 11:16:15;;;;;;;1.83;1.70;;;27.90;93.80;;;;;;5014213;28;20203;-72
2022/07/24 11:18:47;;;;;;;2.33;2.13;;;28.20;93.30;;;;;;5007782;28;20166;-73
2022/07/24 11:21:27;;;;;;;5.37;1.80;;;28.10;93.90;;;;;;4998608;28;20194;-71
2022/07/24 11:24:21;;;;;;;3.43;1.73;;;27.90;94.00;;;;;;4998755;28;20173;-73
2022/07/24 11:26:46;;;;;;;2.53;2.40;;;25.00;92.10;;;;;;4998267;28;20569;-72
2022/07/24 11:29:23;;;;;;;2.23;2.00;;;26.30;92.60;;;;;;4998529;28;20180;-71
2022/07/24 11:32:11;;;;;;;1.90;1.73;;;26.20;93.70;;;;;;5016402;28;20512;-74
2022/07/24 11:34:37;;;;;;;3.00;2.70;;;25.80;92.80;;;;;;5017425;28;20490;-72
2022/07/24 11:37:08;;;;;;;2.20;2.10;;;29.40;95.10;;;;;;5017047;28;20641;-72
2022/07/24 11:39:37;;;;;;;3.27;3.03;;;-40.00;57.30;;;;;;5018127;28;20492;-72
2022/07/24 11:42:05;;;;;;;2.60;2.40;;;-40.00;54.10;;;;;;5018200;28;20276;-72
2022/07/24 11:44:40;;;;;;;2.40;2.20;;;-37.50;53.80;;;;;;5016004;28;20201;-72
2022/07/24 11:47:07;;;;;;;2.97;2.83;;;-40.00;52.10;;;;;;5016854;28;20201;-71
2022/07/24 11:49:48;;;;;;;3.90;3.03;;;-40.00;53.50;;;;;;5016810;28;20192;-70
2022/07/24 11:52:19;;;;;;;3.47;2.53;;;-40.00;54.10;;;;;;5017821;28;20253;-74
2022/07/24 11:54:46;;;;;;;2.77;2.57;;;-40.00;50.80;;;;;;5017010;28;20192;-72
2022/07/24 11:57:25;;;;;;;2.57;2.37;;;-40.00;49.30;;;;;;5017849;28;20169;-71
2022/07/24 11:59:57;;;;;;;2.50;2.30;;;-40.00;50.80;;;;;;5017701;28;20161;-75
2022/07/24 12:02:24;;;;;;;5.68;3.25;;;31.00;90.10;;;;;;5017737;28;20606;-72
2022/07/24 12:04:50;;;;;;;3.28;3.00;;;31.30;90.80;;;;;;5018184;28;20173;-75
2022/07/24 12:07:20;;;;;;;3.58;2.42;;;30.50;90.50;;;;;;5019967;28;20189;-73
2022/07/24 12:09:54;;;;;;;2.67;2.58;;;29.80;87.00;;;;;;5018274;28;20791;-71
2022/07/24 12:12:21;;;;;;;5.50;5.10;;;29.60;89.50;;;;;;5016999;28;20165;-72
2022/07/24 12:14:48;;;;;;;6.05;4.32;;;30.40;88.70;;;;;;5017163;28;20185;-72
2022/07/24 12:17:14;;;;;;;3.47;3.28;;;30.10;84.40;;;;;;5017166;28;20176;-73
2022/07/24 12:19:49;;;;;;;2.90;2.70;;;34.20;86.00;;;;;;5017090;28;20169;-71
2022/07/24 12:22:15;;;;;;;5.93;5.43;;;33.20;82.30;;;;;;5017269;28;20576;-72
2022/07/24 12:24:41;;;;;;;6.22;5.72;;;33.60;84.70;;;;;;5016354;28;20192;-73
2022/07/24 12:27:07;;;;;;;3.00;2.80;;;30.90;81.40;;;;;;5017123;28;20245;-72
2022/07/24 12:29:42;;;;;;;3.53;2.97;;;34.60;80.70;;;;;;5016904;28;20194;-71
2022/07/24 12:32:18;;;;;;;5.78;5.38;;;34.80;79.60;;;;;;5017058;28;20184;-72